Time;durP1;ratioP1;P1;durP2;ratioP2;P2;SDS_P1;SDS_P2;PMS_P1;PMS_P2;Temp;Humidity;BMP_temperature;BMP_pressure;BME280_temperature;BME280_humidity;BME280_pressure;Samples;Min_cycle;Max_cycle;Signal;HPM_P1;HPM_P2
2022/01/30 00:01:03;;;;;;;22.75;5.28;;;7.70;99.90;;;;;;4142909;28;20390;-64
2022/01/30 00:03:03;;;;;;;25.80;5.10;;;7.70;99.90;;;;;;4137038;28;20050;-64
2022/01/30 00:05:06;;;;;;;33.33;6.07;;;7.70;99.90;;;;;;4143111;28;20069;-64
2022/01/30 00:07:06;;;;;;;32.55;6.32;;;7.70;99.90;;;;;;4142441;28;20034;-64
2022/01/30 00:09:15;;;;;;;24.27;5.97;;;7.60;99.90;;;;;;4139371;28;20049;-62
2022/01/30 00:11:23;;;;;;;26.70;5.60;;;7.60;99.90;;;;;;4141826;28;20068;-62
2022/01/30 00:13:26;;;;;;;21.95;5.18;;;7.60;99.90;;;;;;4142501;28;20034;-62
2022/01/30 00:15:40;;;;;;;22.65;5.57;;;7.60;99.90;;;;;;4139440;28;20043;-63
2022/01/30 00:17:48;;;;;;;30.15;5.32;;;7.60;99.90;;;;;;4138275;28;20039;-63
2022/01/30 00:19:57;;;;;;;34.45;5.68;;;7.60;99.90;;;;;;4137102;28;20129;-62
2022/01/30 00:22:23;;;;;;;33.75;5.72;;;7.50;99.90;;;;;;4134770;28;20045;-63
2022/01/30 00:24:32;;;;;;;22.42;4.35;;;7.50;99.90;;;;;;4133322;28;20076;-62
2022/01/30 00:26:36;;;;;;;39.08;5.70;;;7.50;99.90;;;;;;4137193;28;20026;-63
2022/01/30 00:28:37;;;;;;;18.55;4.65;;;7.50;99.90;;;;;;4136868;28;20030;-63
2022/01/30 00:30:38;;;;;;;19.25;4.22;;;7.50;99.90;;;;;;4144804;28;20030;-63
2022/01/30 00:32:38;;;;;;;22.65;4.95;;;7.50;99.90;;;;;;4137037;28;20458;-63
2022/01/30 00:34:39;;;;;;;21.42;5.13;;;7.50;99.90;;;;;;4145080;28;20068;-63
2022/01/30 00:36:39;;;;;;;23.38;4.05;;;7.50;99.90;;;;;;4140030;28;20040;-63
2022/01/30 00:38:41;;;;;;;24.33;5.88;;;7.40;99.90;;;;;;4138001;28;20042;-63
2022/01/30 00:40:43;;;;;;;23.23;5.10;;;7.50;99.90;;;;;;4142426;28;20085;-63
2022/01/30 00:42:43;;;;;;;26.05;5.00;;;7.50;99.90;;;;;;4136369;28;20034;-63
2022/01/30 00:44:44;;;;;;;30.60;6.38;;;7.50;99.90;;;;;;4140908;28;20058;-63
2022/01/30 00:46:45;;;;;;;31.73;6.22;;;7.50;99.90;;;;;;4140306;28;20362;-63
2022/01/30 00:48:46;;;;;;;22.33;5.13;;;7.50;99.90;;;;;;4144092;28;20045;-63
2022/01/30 00:50:48;;;;;;;23.25;4.38;;;7.50;99.90;;;;;;4135416;28;20374;-63
2022/01/30 00:52:53;;;;;;;17.75;4.15;;;7.50;99.90;;;;;;4139357;28;20038;-63
2022/01/30 00:54:53;;;;;;;27.67;5.03;;;7.50;99.90;;;;;;4139775;28;20038;-62
2022/01/30 00:56:54;;;;;;;23.88;4.93;;;7.50;99.90;;;;;;4136124;28;20065;-68
2022/01/30 00:58:55;;;;;;;23.83;5.35;;;7.50;99.90;;;;;;4137949;28;20053;-64
2022/01/30 01:00:55;;;;;;;24.48;5.25;;;7.50;99.90;;;;;;4136621;28;20037;-64
2022/01/30 01:02:56;;;;;;;32.08;5.60;;;7.60;99.90;;;;;;4142431;28;20061;-63
2022/01/30 01:05:01;;;;;;;22.33;4.50;;;7.50;99.90;;;;;;4140357;28;20040;-63
2022/01/30 01:07:02;;;;;;;22.73;5.65;;;7.50;99.90;;;;;;4135890;28;20132;-63
2022/01/30 01:09:04;;;;;;;25.23;5.25;;;7.50;99.90;;;;;;4146428;28;20038;-63
2022/01/30 01:11:50;;;;;;;20.98;5.22;;;7.50;99.90;;;;;;4139059;28;20044;-62
2022/01/30 01:24:56;;;;;;;20.83;4.93;;;7.40;99.90;;;;;;4143288;28;20034;-63
2022/01/30 01:26:56;;;;;;;15.48;4.07;;;7.40;99.90;;;;;;4136625;28;20384;-63
2022/01/30 01:28:57;;;;;;;24.98;4.80;;;7.40;99.90;;;;;;4143660;28;20046;-63
2022/01/30 01:30:58;;;;;;;27.13;5.18;;;7.40;99.90;;;;;;4139080;28;20031;-62
2022/01/30 01:33:01;;;;;;;24.75;5.22;;;7.40;99.90;;;;;;4138488;28;20057;-63
2022/01/30 01:35:02;;;;;;;22.15;4.88;;;7.40;99.90;;;;;;4140509;28;20113;-65
2022/01/30 01:37:04;;;;;;;27.10;5.57;;;7.30;99.90;;;;;;4139358;28;20041;-63
2022/01/30 01:39:05;;;;;;;31.77;5.45;;;7.30;99.90;;;;;;4137727;28;20058;-63
2022/01/30 01:41:05;;;;;;;33.05;5.78;;;7.30;99.90;;;;;;4139202;28;20050;-63
2022/01/30 01:43:07;;;;;;;29.85;5.78;;;7.20;99.90;;;;;;4137377;28;20038;-63
2022/01/30 01:45:08;;;;;;;34.65;5.55;;;7.20;99.90;;;;;;4140640;28;20046;-63
2022/01/30 01:47:10;;;;;;;18.75;4.68;;;7.20;99.90;;;;;;4145908;28;20121;-62
2022/01/30 01:49:18;;;;;;;32.33;5.03;;;7.10;99.90;;;;;;4142289;28;20402;-63
2022/01/30 01:51:23;;;;;;;28.92;4.93;;;7.10;99.90;;;;;;4140622;28;20400;-63
2022/01/30 01:53:25;;;;;;;31.13;5.65;;;7.00;99.90;;;;;;4136704;28;20038;-63
2022/01/30 01:55:26;;;;;;;23.50;4.45;;;7.00;99.90;;;;;;4143443;28;20056;-63
2022/01/30 01:57:28;;;;;;;27.35;6.15;;;7.10;99.90;;;;;;4138240;28;20062;-63
2022/01/30 01:59:28;;;;;;;28.52;5.30;;;7.10;99.90;;;;;;4138938;28;20383;-63
2022/01/30 02:01:29;;;;;;;26.05;5.13;;;7.10;99.90;;;;;;4136363;28;20053;-63
2022/01/30 02:03:30;;;;;;;20.13;5.03;;;7.10;99.90;;;;;;4140505;28;20059;-63
2022/01/30 02:05:33;;;;;;;29.17;5.50;;;7.10;99.90;;;;;;4140652;28;20045;-63
2022/01/30 02:08:11;;;;;;;27.50;4.85;;;7.10;99.90;;;;;;4143413;28;20034;-63
2022/01/30 02:09:56;;;;;;;21.50;4.45;;;7.10;99.90;;;;;;4138658;28;20067;-64
2022/01/30 02:11:57;;;;;;;23.88;5.53;;;7.00;99.90;;;;;;4144106;28;20659;-64
2022/01/30 02:25:39;;;;;;;18.42;4.20;;;6.90;99.90;;;;;;4139109;28;20042;-63
2022/01/30 02:27:39;;;;;;;27.08;5.82;;;6.90;99.90;;;;;;4143032;28;20038;-63
2022/01/30 02:29:40;;;;;;;26.75;5.68;;;6.90;99.90;;;;;;4145299;28;20068;-63
2022/01/30 02:31:42;;;;;;;40.42;6.95;;;6.90;99.90;;;;;;4139228;28;20389;-62
2022/01/30 02:33:44;;;;;;;28.55;5.88;;;6.90;99.90;;;;;;4143564;28;20041;-63
2022/01/30 02:35:45;;;;;;;30.23;5.70;;;6.90;99.90;;;;;;4144879;28;20097;-62
2022/01/30 02:37:47;;;;;;;25.73;5.18;;;6.90;99.90;;;;;;4143184;28;20433;-63
2022/01/30 02:39:48;;;;;;;32.97;6.15;;;6.90;99.90;;;;;;4142093;28;20065;-62
2022/01/30 02:41:49;;;;;;;25.90;5.15;;;6.80;99.90;;;;;;4140828;28;20038;-62
2022/01/30 02:44:17;;;;;;;29.80;5.78;;;6.90;99.90;;;;;;4138173;28;20039;-63
2022/01/30 02:46:24;;;;;;;26.52;5.30;;;6.90;99.90;;;;;;4139932;28;20061;-63
2022/01/30 02:48:32;;;;;;;24.67;5.20;;;6.90;99.90;;;;;;4129619;28;20034;-63
2022/01/30 02:50:53;;;;;;;25.30;4.97;;;7.00;99.90;;;;;;4124862;28;20034;-63
2022/01/30 02:52:57;;;;;;;27.02;5.35;;;7.00;99.90;;;;;;4125719;28;20371;-63
2022/01/30 02:54:58;;;;;;;21.42;4.85;;;7.00;99.90;;;;;;4123620;28;20433;-64
2022/01/30 02:56:59;;;;;;;19.67;4.50;;;7.00;99.90;;;;;;4139296;28;20165;-63
2022/01/30 02:58:59;;;;;;;23.83;5.18;;;7.00;99.90;;;;;;4138303;28;20146;-63
2022/01/30 03:01:00;;;;;;;26.05;5.10;;;7.00;99.90;;;;;;4146491;28;20030;-63
2022/01/30 03:03:01;;;;;;;20.60;4.10;;;6.90;99.90;;;;;;4146898;28;20029;-63
2022/01/30 03:05:02;;;;;;;29.13;5.07;;;7.00;99.90;;;;;;4142493;28;20042;-63
2022/01/30 03:07:03;;;;;;;25.45;4.63;;;6.90;99.90;;;;;;4133976;28;20126;-63
2022/01/30 03:09:06;;;;;;;25.17;5.40;;;6.90;99.90;;;;;;4143198;28;20129;-63
2022/01/30 03:11:07;;;;;;;23.95;5.25;;;6.90;99.90;;;;;;4144671;28;20034;-63
2022/01/30 03:13:07;;;;;;;22.23;4.03;;;7.00;99.90;;;;;;4139416;28;20116;-63
2022/01/30 03:15:09;;;;;;;26.10;5.38;;;7.00;99.90;;;;;;4138822;28;20038;-63
2022/01/30 03:17:09;;;;;;;22.52;4.88;;;7.00;99.90;;;;;;4140815;28;20046;-63
2022/01/30 03:19:10;;;;;;;15.63;3.78;;;7.00;99.90;;;;;;4141386;28;20046;-63
2022/01/30 03:21:10;;;;;;;21.63;5.07;;;7.00;99.90;;;;;;4138654;28;20104;-63
2022/01/30 03:23:11;;;;;;;22.52;5.18;;;7.00;99.90;;;;;;4139865;28;20047;-63
2022/01/30 03:25:12;;;;;;;18.73;4.63;;;7.00;99.90;;;;;;4142539;28;20045;-64
2022/01/30 03:27:14;;;;;;;20.17;4.75;;;7.00;99.90;;;;;;4142566;28;20045;-63
2022/01/30 03:29:14;;;;;;;17.35;3.97;;;7.00;99.90;;;;;;4145217;28;20057;-63
2022/01/30 03:31:17;;;;;;;24.65;4.85;;;7.00;99.90;;;;;;4140770;28;20034;-63
2022/01/30 03:33:18;;;;;;;24.05;5.25;;;7.00;99.90;;;;;;4139918;28;20045;-62
2022/01/30 03:35:19;;;;;;;22.63;4.35;;;7.10;99.90;;;;;;4138557;28;20129;-63
2022/01/30 03:37:20;;;;;;;23.88;5.10;;;7.10;99.90;;;;;;4146208;28;20042;-63
2022/01/30 03:39:21;;;;;;;18.75;4.68;;;7.10;99.90;;;;;;4140501;28;20582;-62
2022/01/30 03:41:21;;;;;;;22.75;4.70;;;7.00;99.90;;;;;;4138958;28;20041;-63
2022/01/30 03:43:22;;;;;;;23.15;5.25;;;7.10;99.90;;;;;;4144203;28;20038;-63
2022/01/30 03:45:23;;;;;;;18.42;4.65;;;7.00;99.90;;;;;;4142975;28;20468;-63
2022/01/30 03:47:26;;;;;;;26.58;5.65;;;7.10;99.90;;;;;;4138662;28;20049;-63
2022/01/30 03:49:26;;;;;;;24.52;5.05;;;7.00;99.90;;;;;;4141968;28;20452;-64
2022/01/30 03:51:27;;;;;;;15.15;4.25;;;7.10;99.90;;;;;;4138165;28;20082;-64
2022/01/30 03:53:31;;;;;;;19.42;4.82;;;7.00;99.90;;;;;;4139876;28;20120;-63
2022/01/30 03:55:31;;;;;;;28.17;4.80;;;7.00;99.90;;;;;;4158000;28;20038;-63
2022/01/30 03:57:32;;;;;;;25.30;4.45;;;6.90;99.90;;;;;;4137063;28;20374;-64
2022/01/30 03:59:32;;;;;;;29.95;5.85;;;6.80;99.90;;;;;;4139989;28;20050;-63
2022/01/30 04:01:34;;;;;;;27.10;5.07;;;6.80;99.90;;;;;;4140413;28;20177;-63
2022/01/30 04:03:36;;;;;;;23.88;4.78;;;6.70;99.90;;;;;;4137414;28;20045;-63
2022/01/30 04:05:36;;;;;;;17.63;4.10;;;6.70;99.90;;;;;;4142097;28;20041;-63
2022/01/30 04:07:37;;;;;;;28.33;5.22;;;6.70;99.90;;;;;;4142423;28;20137;-63
2022/01/30 04:09:38;;;;;;;23.13;4.65;;;6.70;99.90;;;;;;4136689;28;20482;-63
2022/01/30 04:11:39;;;;;;;23.45;4.30;;;6.60;99.90;;;;;;4134891;28;20390;-63
2022/01/30 04:13:40;;;;;;;22.27;4.95;;;6.60;99.90;;;;;;4140964;28;20076;-63
2022/01/30 04:15:40;;;;;;;26.88;5.32;;;6.60;99.90;;;;;;4136719;28;20046;-63
2022/01/30 04:17:41;;;;;;;26.77;4.88;;;6.50;99.90;;;;;;4141032;28;20034;-63
2022/01/30 04:19:42;;;;;;;19.73;4.65;;;6.50;99.90;;;;;;4139586;28;20050;-63
2022/01/30 04:21:43;;;;;;;22.02;4.22;;;6.50;99.90;;;;;;4139686;28;20034;-63
2022/01/30 04:23:43;;;;;;;18.83;4.75;;;6.40;99.90;;;;;;4139032;28;20046;-63
2022/01/30 04:25:44;;;;;;;24.05;4.75;;;6.40;99.90;;;;;;4140137;28;20058;-63
2022/01/30 04:27:45;;;;;;;17.27;4.00;;;6.30;99.90;;;;;;4137159;28;20508;-63
2022/01/30 04:29:46;;;;;;;21.27;4.53;;;6.30;99.90;;;;;;4136170;28;20078;-63
2022/01/30 04:31:49;;;;;;;20.60;5.32;;;6.20;99.90;;;;;;4140322;28;20087;-63
2022/01/30 04:33:50;;;;;;;26.02;5.25;;;6.30;99.90;;;;;;4133647;28;20121;-63
2022/01/30 04:35:51;;;;;;;21.85;4.70;;;6.20;99.90;;;;;;4141363;28;20045;-63
2022/01/30 04:40:21;;;;;;;27.08;5.57;;;6.20;99.90;;;;;;4137005;28;20482;-64
2022/01/30 04:52:08;;;;;;;16.88;3.78;;;6.20;99.90;;;;;;4134411;28;20117;-63
2022/01/30 04:55:00;;;;;;;26.95;4.60;;;6.20;99.90;;;;;;4137714;28;20057;-63
2022/01/30 04:57:15;;;;;;;29.25;4.55;;;6.20;99.90;;;;;;4138339;28;20062;-63
2022/01/30 04:59:44;;;;;;;21.52;4.45;;;6.20;99.90;;;;;;4137208;28;20066;-63
2022/01/30 05:04:03;;;;;;;21.60;4.30;;;6.20;99.90;;;;;;4138102;28;20075;-64
2022/01/30 05:06:11;;;;;;;23.45;4.57;;;6.30;99.90;;;;;;4138736;28;20088;-63
2022/01/30 05:08:11;;;;;;;23.42;4.28;;;6.20;99.90;;;;;;4140666;28;20046;-63
2022/01/30 05:10:12;;;;;;;28.48;4.88;;;6.30;99.90;;;;;;4141407;28;20058;-63
2022/01/30 05:12:15;;;;;;;20.77;4.22;;;6.20;99.90;;;;;;4141873;28;20041;-62
2022/01/30 05:14:16;;;;;;;24.50;4.80;;;6.30;99.90;;;;;;4140662;28;20042;-62
2022/01/30 05:16:19;;;;;;;25.90;4.22;;;6.30;99.90;;;;;;4142336;28;20034;-63
2022/01/30 05:18:25;;;;;;;28.25;5.35;;;6.30;99.90;;;;;;4145047;28;20117;-62
2022/01/30 05:20:26;;;;;;;27.80;5.40;;;6.20;99.90;;;;;;4142964;28;20513;-63
2022/01/30 05:22:27;;;;;;;18.70;4.30;;;6.20;99.90;;;;;;4143024;28;20037;-63
2022/01/30 05:24:27;;;;;;;17.27;4.30;;;6.30;99.90;;;;;;4145195;28;20128;-65
2022/01/30 05:26:29;;;;;;;27.20;5.45;;;6.30;99.90;;;;;;4141679;28;20038;-63
2022/01/30 05:28:30;;;;;;;23.08;4.20;;;6.30;99.90;;;;;;4143102;28;20124;-63
2022/01/30 05:30:31;;;;;;;25.50;5.18;;;6.30;99.90;;;;;;4140242;28;20034;-63
2022/01/30 05:32:32;;;;;;;19.65;4.15;;;6.30;99.90;;;;;;4140731;28;20503;-63
2022/01/30 05:34:33;;;;;;;20.60;4.22;;;6.30;99.90;;;;;;4142648;28;20037;-63
2022/01/30 05:36:38;;;;;;;17.85;4.07;;;6.40;99.90;;;;;;4143767;28;20038;-63
2022/01/30 05:38:39;;;;;;;20.73;4.28;;;6.30;99.90;;;;;;4144337;28;20054;-63
2022/01/30 05:40:40;;;;;;;17.17;4.22;;;6.30;99.90;;;;;;4142218;28;20499;-63
2022/01/30 05:42:41;;;;;;;28.92;5.90;;;6.30;99.90;;;;;;4142924;28;20477;-63
2022/01/30 05:44:56;;;;;;;19.58;3.95;;;6.30;99.90;;;;;;4142399;28;20044;-63
2022/01/30 05:47:00;;;;;;;21.13;3.83;;;6.20;99.90;;;;;;4139863;28;20085;-63
2022/01/30 05:49:04;;;;;;;27.85;4.15;;;6.20;99.90;;;;;;4130814;28;20040;-63
2022/01/30 05:51:05;;;;;;;23.98;5.38;;;6.20;99.90;;;;;;4157414;28;20129;-63
2022/01/30 05:53:05;;;;;;;22.77;4.82;;;6.20;99.90;;;;;;4139099;28;20050;-63
2022/01/30 05:55:06;;;;;;;19.55;4.45;;;6.20;99.90;;;;;;4132964;28;20037;-63
2022/01/30 05:57:07;;;;;;;20.95;4.25;;;6.20;99.90;;;;;;4138333;28;20096;-63
2022/01/30 05:59:08;;;;;;;18.75;4.63;;;6.10;99.90;;;;;;4144220;28;20519;-63
2022/01/30 06:01:08;;;;;;;19.13;4.07;;;6.10;99.90;;;;;;4139586;28;20081;-63
2022/01/30 06:03:09;;;;;;;21.38;4.22;;;6.10;99.90;;;;;;4154795;28;20490;-63
2022/01/30 06:05:10;;;;;;;27.00;4.85;;;6.10;99.90;;;;;;4143763;28;20052;-64
2022/01/30 06:07:11;;;;;;;23.67;4.20;;;6.00;99.90;;;;;;4137628;28;20544;-63
2022/01/30 06:09:19;;;;;;;23.75;3.97;;;6.10;99.90;;;;;;4146095;28;20109;-63
2022/01/30 06:11:19;;;;;;;22.42;4.10;;;6.10;99.90;;;;;;4142618;28;20039;-63
2022/01/30 06:13:20;;;;;;;24.30;4.57;;;6.10;99.90;;;;;;4145070;28;20046;-63
2022/01/30 06:15:21;;;;;;;17.02;3.75;;;6.10;99.90;;;;;;4144529;28;20033;-63
2022/01/30 06:17:21;;;;;;;24.75;4.13;;;6.10;99.90;;;;;;4144014;28;20409;-62
2022/01/30 06:19:22;;;;;;;14.60;3.40;;;6.10;99.90;;;;;;4145207;28;20068;-63
2022/01/30 06:21:23;;;;;;;24.73;4.07;;;6.10;99.90;;;;;;4143860;28;20501;-63
2022/01/30 06:23:26;;;;;;;19.98;3.92;;;6.00;99.90;;;;;;4144231;28;20035;-62
2022/01/30 06:25:27;;;;;;;15.63;3.75;;;6.00;99.90;;;;;;4144055;28;20121;-63
2022/01/30 06:27:27;;;;;;;19.70;3.97;;;6.10;99.90;;;;;;4145983;28;20846;-63
2022/01/30 06:29:28;;;;;;;14.18;3.15;;;6.00;99.90;;;;;;4145930;28;20096;-62
2022/01/30 06:31:28;;;;;;;14.35;3.42;;;6.10;99.90;;;;;;4144748;28;20101;-63
2022/01/30 06:33:29;;;;;;;19.70;3.85;;;6.10;99.90;;;;;;4145756;28;20477;-66
2022/01/30 06:35:30;;;;;;;19.00;3.80;;;6.10;99.90;;;;;;4143225;28;20050;-63
2022/01/30 06:37:30;;;;;;;13.98;3.75;;;6.10;99.90;;;;;;4145978;28;20034;-63
2022/01/30 06:39:34;;;;;;;19.02;3.45;;;6.20;99.90;;;;;;4143673;28;20054;-63
2022/01/30 06:41:34;;;;;;;15.27;3.47;;;6.20;99.90;;;;;;4144528;28;20037;-63
2022/01/30 06:43:35;;;;;;;18.75;3.40;;;6.20;99.90;;;;;;4147248;28;20057;-63
2022/01/30 06:45:36;;;;;;;11.13;2.90;;;6.10;99.90;;;;;;4145192;28;20041;-63
2022/01/30 06:47:46;;;;;;;21.05;4.00;;;6.20;99.90;;;;;;4146722;28;20120;-63
2022/01/30 06:49:47;;;;;;;13.30;2.75;;;6.20;99.90;;;;;;4145906;28;20600;-63
2022/01/30 06:51:47;;;;;;;13.48;3.58;;;6.20;99.90;;;;;;4137947;28;20050;-63
2022/01/30 06:53:48;;;;;;;27.52;4.28;;;6.20;99.90;;;;;;4146053;28;20034;-63
2022/01/30 06:55:49;;;;;;;21.75;3.35;;;6.20;99.90;;;;;;4143628;28;20100;-63
2022/01/30 06:57:52;;;;;;;17.13;3.67;;;6.10;99.90;;;;;;4146176;28;20042;-62
2022/01/30 06:59:53;;;;;;;16.00;3.13;;;6.10;99.90;;;;;;4145186;28;20042;-63
2022/01/30 07:01:53;;;;;;;14.93;3.03;;;6.20;99.90;;;;;;4142477;28;20413;-63
2022/01/30 07:03:54;;;;;;;23.05;3.58;;;6.20;99.90;;;;;;4157308;28;20030;-63
2022/01/30 07:05:55;;;;;;;14.80;3.08;;;6.30;99.90;;;;;;4145628;28;20089;-63
2022/01/30 07:07:55;;;;;;;12.63;3.08;;;6.30;99.90;;;;;;4141370;28;20052;-63
2022/01/30 07:09:56;;;;;;;20.00;3.35;;;6.30;99.90;;;;;;4146900;28;20044;-63
2022/01/30 07:11:56;;;;;;;19.30;3.40;;;6.30;99.90;;;;;;4144633;28;20053;-63
2022/01/30 07:13:58;;;;;;;15.35;3.47;;;6.40;99.90;;;;;;4144716;28;20057;-63
2022/01/30 07:15:58;;;;;;;13.20;2.67;;;6.30;99.90;;;;;;4143195;28;20069;-63
2022/01/30 07:17:59;;;;;;;13.18;3.20;;;6.40;99.90;;;;;;4144002;28;20477;-63
2022/01/30 07:19:59;;;;;;;11.10;3.03;;;6.30;99.90;;;;;;4144084;28;20042;-62
2022/01/30 07:22:00;;;;;;;14.27;3.47;;;6.30;99.90;;;;;;4143767;28;20034;-67
2022/01/30 07:24:01;;;;;;;16.33;3.80;;;6.30;99.90;;;;;;4146334;28;20038;-63
2022/01/30 07:26:01;;;;;;;15.55;2.97;;;6.30;99.90;;;;;;4144685;28;20072;-63
2022/01/30 07:28:02;;;;;;;24.30;3.22;;;6.30;99.90;;;;;;4140488;28;20048;-63
2022/01/30 07:30:04;;;;;;;12.55;3.03;;;6.20;99.90;;;;;;4139668;28;20035;-64
2022/01/30 07:32:05;;;;;;;15.73;2.97;;;6.30;99.90;;;;;;4142716;28;20038;-63
2022/01/30 07:34:06;;;;;;;27.52;3.78;;;6.30;99.90;;;;;;4142686;28;20048;-63
2022/01/30 07:36:08;;;;;;;26.65;4.20;;;6.30;99.90;;;;;;4140841;28;20050;-63
2022/01/30 07:38:09;;;;;;;18.65;3.65;;;6.20;99.90;;;;;;4144275;28;20038;-63
2022/01/30 07:40:10;;;;;;;26.13;4.22;;;6.20;99.90;;;;;;4141653;28;20058;-63
2022/01/30 07:42:11;;;;;;;24.58;3.70;;;6.20;99.90;;;;;;4140625;28;20397;-63
2022/01/30 07:44:12;;;;;;;14.80;3.65;;;6.30;99.90;;;;;;4145898;28;20045;-63
2022/01/30 07:46:13;;;;;;;17.85;4.10;;;6.30;99.90;;;;;;4140376;28;20034;-62
2022/01/30 07:48:15;;;;;;;23.30;3.80;;;6.20;99.90;;;;;;4145240;28;20055;-63
2022/01/30 07:50:16;;;;;;;16.58;3.28;;;6.10;99.90;;;;;;4142695;28;20034;-63
2022/01/30 07:52:16;;;;;;;16.65;3.53;;;6.20;99.90;;;;;;4140763;28;20038;-63
2022/01/30 07:54:17;;;;;;;18.25;3.78;;;6.10;99.90;;;;;;4142370;28;20042;-63
2022/01/30 07:56:17;;;;;;;12.95;3.42;;;6.20;99.90;;;;;;4141462;28;20421;-63
2022/01/30 07:58:18;;;;;;;22.17;4.10;;;6.20;99.90;;;;;;4142520;28;20041;-63
2022/01/30 08:00:19;;;;;;;18.15;3.92;;;6.20;99.90;;;;;;4142126;28;20049;-63
2022/01/30 08:02:19;;;;;;;23.52;4.30;;;6.10;99.90;;;;;;4144993;28;20164;-63
2022/01/30 08:04:20;;;;;;;18.45;3.28;;;6.20;99.90;;;;;;4145178;28;20030;-63
2022/01/30 08:06:20;;;;;;;22.98;3.97;;;6.20;99.90;;;;;;4138827;28;20050;-63
2022/01/30 08:08:21;;;;;;;24.38;4.13;;;6.30;99.90;;;;;;4139792;28;20038;-63
2022/01/30 08:10:22;;;;;;;23.60;4.35;;;6.30;99.90;;;;;;4137100;28;20042;-63
2022/01/30 08:12:23;;;;;;;10.77;3.45;;;6.30;99.90;;;;;;4140342;28;20045;-63
2022/01/30 08:14:24;;;;;;;16.17;4.03;;;6.30;99.90;;;;;;4144987;28;20088;-63
2022/01/30 08:16:26;;;;;;;12.98;3.15;;;6.40;99.90;;;;;;4141412;28;20042;-63
2022/01/30 08:18:27;;;;;;;19.70;4.15;;;6.40;99.90;;;;;;4141495;28;20046;-63
2022/01/30 08:20:28;;;;;;;24.98;4.03;;;6.50;99.90;;;;;;4138589;28;20046;-63
2022/01/30 08:22:31;;;;;;;17.90;3.70;;;6.40;99.90;;;;;;4141926;28;20061;-63
2022/01/30 08:24:31;;;;;;;19.38;3.92;;;6.40;99.90;;;;;;4142159;28;20052;-63
2022/01/30 08:26:32;;;;;;;19.42;4.28;;;6.50;99.90;;;;;;4143883;28;20487;-63
2022/01/30 08:28:32;;;;;;;18.35;4.38;;;6.50;99.90;;;;;;4142471;28;20386;-64
2022/01/30 08:30:33;;;;;;;21.70;3.70;;;6.40;99.90;;;;;;4143342;28;20046;-63
2022/01/30 08:32:42;;;;;;;25.40;4.72;;;6.50;99.90;;;;;;4144012;28;20034;-64
2022/01/30 08:34:42;;;;;;;19.73;3.90;;;6.50;99.90;;;;;;4142367;28;20042;-63
2022/01/30 08:36:43;;;;;;;22.60;4.28;;;6.50;99.90;;;;;;4144046;28;20118;-63
2022/01/30 08:38:43;;;;;;;24.63;4.30;;;6.50;99.90;;;;;;4142811;28;20489;-62
2022/01/30 08:40:48;;;;;;;22.23;3.90;;;6.50;99.90;;;;;;4136104;28;20045;-63
2022/01/30 08:42:49;;;;;;;16.77;3.97;;;6.60;99.90;;;;;;4142045;28;20042;-63
2022/01/30 08:44:50;;;;;;;28.30;4.88;;;6.60;99.90;;;;;;4138781;28;20049;-63
2022/01/30 08:46:50;;;;;;;26.20;4.97;;;6.60;99.90;;;;;;4139865;28;20117;-63
2022/01/30 08:48:51;;;;;;;17.67;4.00;;;6.70;99.90;;;;;;4139584;28;20050;-63
2022/01/30 08:50:52;;;;;;;11.23;2.72;;;6.80;99.90;;;;;;4142085;28;20042;-63
2022/01/30 08:52:53;;;;;;;20.85;3.97;;;6.80;99.90;;;;;;4142406;28;20046;-63
2022/01/30 08:54:53;;;;;;;17.50;3.58;;;6.90;99.90;;;;;;4143628;28;20042;-63
2022/01/30 08:56:54;;;;;;;18.35;3.95;;;6.90;99.90;;;;;;4141241;28;20041;-63
2022/01/30 08:58:54;;;;;;;21.20;4.65;;;6.90;99.90;;;;;;4142437;28;20070;-63
2022/01/30 09:00:55;;;;;;;18.67;4.05;;;7.00;99.90;;;;;;4141343;28;20041;-63
2022/01/30 09:02:59;;;;;;;24.30;5.10;;;7.00;99.90;;;;;;4139563;28;20038;-63
2022/01/30 09:04:59;;;;;;;16.35;4.07;;;7.00;99.90;;;;;;4142875;28;20030;-63
2022/01/30 09:07:00;;;;;;;27.65;4.82;;;6.90;99.90;;;;;;4142417;28;20405;-63
2022/01/30 09:09:03;;;;;;;16.90;3.45;;;6.90;99.90;;;;;;4138391;28;20084;-63
2022/01/30 09:11:04;;;;;;;21.02;4.28;;;6.90;99.90;;;;;;4138380;28;20449;-63
2022/01/30 09:13:06;;;;;;;20.02;4.30;;;6.90;99.90;;;;;;4142209;28;20042;-63
2022/01/30 09:15:08;;;;;;;20.20;4.10;;;7.00;99.90;;;;;;4140699;28;20065;-64
2022/01/30 09:17:14;;;;;;;20.70;3.97;;;6.90;99.90;;;;;;4141970;28;20044;-63
2022/01/30 09:19:15;;;;;;;25.63;4.10;;;7.00;99.90;;;;;;4142201;28;20054;-63
2022/01/30 09:21:16;;;;;;;30.98;5.47;;;7.00;99.90;;;;;;4143865;28;20048;-63
2022/01/30 09:23:16;;;;;;;25.60;5.05;;;7.00;99.90;;;;;;4143343;28;20042;-63
2022/01/30 09:25:17;;;;;;;17.38;4.13;;;7.00;99.90;;;;;;4139382;28;20481;-63
2022/01/30 09:27:18;;;;;;;27.85;4.93;;;7.10;99.90;;;;;;4143978;28;20408;-63
2022/01/30 09:29:22;;;;;;;21.48;4.47;;;7.10;99.90;;;;;;4144032;28;20065;-63
2022/01/30 09:31:23;;;;;;;18.08;3.42;;;7.10;99.90;;;;;;4139573;28;20800;-63
2022/01/30 09:33:23;;;;;;;20.70;4.20;;;7.10;99.90;;;;;;4141453;28;20038;-63
2022/01/30 09:35:24;;;;;;;17.40;3.80;;;7.20;99.90;;;;;;4141838;28;20501;-63
2022/01/30 09:37:25;;;;;;;17.90;4.28;;;7.20;99.90;;;;;;4146447;28;20062;-63
2022/01/30 09:39:26;;;;;;;20.73;4.30;;;7.20;99.90;;;;;;4144760;28;21390;-62
2022/01/30 09:41:28;;;;;;;21.08;4.63;;;7.20;99.90;;;;;;4145374;28;20399;-63
2022/01/30 09:43:29;;;;;;;21.73;4.25;;;7.20;99.90;;;;;;4146655;28;20498;-63
2022/01/30 09:45:30;;;;;;;21.45;4.72;;;7.30;99.90;;;;;;4146253;28;20049;-63
2022/01/30 09:47:33;;;;;;;16.00;3.80;;;7.30;99.90;;;;;;4142405;28;20137;-63
2022/01/30 09:49:35;;;;;;;18.63;4.13;;;7.30;99.90;;;;;;4145146;28;20259;-63
2022/01/30 09:51:40;;;;;;;17.50;4.00;;;7.30;99.90;;;;;;4145365;28;20046;-64
2022/01/30 09:53:40;;;;;;;16.05;3.88;;;7.40;99.90;;;;;;4147230;28;20069;-63
2022/01/30 09:55:41;;;;;;;21.58;4.57;;;7.50;99.90;;;;;;4142810;28;20038;-63
2022/01/30 09:57:43;;;;;;;26.65;5.38;;;7.60;99.90;;;;;;4146254;28;20045;-63
2022/01/30 09:59:43;;;;;;;27.57;5.17;;;7.60;99.90;;;;;;4140263;28;20049;-63
2022/01/30 10:01:44;;;;;;;25.00;4.78;;;7.70;99.90;;;;;;4144451;28;20407;-63
2022/01/30 10:03:48;;;;;;;23.50;4.80;;;7.60;99.90;;;;;;4144371;28;20164;-63
2022/01/30 10:06:13;;;;;;;42.08;5.60;;;7.70;99.90;;;;;;4146145;28;20026;-63
2022/01/30 10:08:28;;;;;;;24.65;5.05;;;7.70;99.90;;;;;;4144501;28;20050;-63
2022/01/30 10:10:29;;;;;;;25.77;5.18;;;7.70;99.90;;;;;;4142072;28;20050;-64
2022/01/30 10:12:31;;;;;;;28.07;5.50;;;7.80;99.90;;;;;;4146375;28;20038;-63
2022/01/30 10:14:31;;;;;;;25.17;5.45;;;7.80;99.90;;;;;;4139821;28;20045;-65
2022/01/30 10:16:36;;;;;;;30.20;5.40;;;7.70;99.90;;;;;;4142154;28;20041;-65
2022/01/30 10:18:44;;;;;;;27.88;5.22;;;7.70;99.90;;;;;;4144829;28;20096;-64
2022/01/30 10:20:45;;;;;;;19.95;4.25;;;7.60;99.90;;;;;;4141864;28;20491;-62
2022/01/30 10:22:53;;;;;;;23.42;5.32;;;7.60;99.90;;;;;;4143140;28;20113;-61
2022/01/30 10:24:54;;;;;;;27.40;4.65;;;7.70;99.90;;;;;;4144155;28;20045;-62
2022/01/30 10:26:59;;;;;;;32.65;4.90;;;7.80;99.90;;;;;;4141476;28;20041;-63
2022/01/30 10:29:26;;;;;;;25.98;5.13;;;7.80;99.90;;;;;;4138173;28;20088;-63
2022/01/30 10:31:27;;;;;;;21.25;4.82;;;7.90;99.90;;;;;;4144006;28;20057;-63
2022/01/30 10:33:40;;;;;;;23.83;4.88;;;8.10;99.90;;;;;;4144449;28;20045;-63
2022/01/30 10:35:59;;;;;;;27.73;6.78;;;8.10;99.90;;;;;;4142025;28;20038;-63
2022/01/30 10:38:00;;;;;;;26.88;5.57;;;8.30;99.90;;;;;;4143016;28;20074;-63
2022/01/30 10:40:08;;;;;;;35.92;6.22;;;8.40;99.90;;;;;;4146015;28;20069;-63
2022/01/30 10:42:47;;;;;;;24.58;5.00;;;8.50;99.90;;;;;;4145046;28;20083;-63
2022/01/30 10:44:49;;;;;;;32.42;6.40;;;8.60;99.90;;;;;;4145157;28;20504;-63
2022/01/30 10:46:53;;;;;;;30.60;6.40;;;8.60;99.90;;;;;;4144312;28;20040;-62
2022/01/30 10:49:00;;;;;;;29.45;5.82;;;8.60;99.90;;;;;;4139515;28;20050;-63
2022/01/30 10:51:11;;;;;;;31.85;6.22;;;8.70;99.90;;;;;;4139924;28;20141;-63
2022/01/30 10:53:23;;;;;;;33.22;6.90;;;8.80;99.90;;;;;;4140372;28;20069;-63
2022/01/30 10:55:43;;;;;;;25.25;5.18;;;8.80;99.90;;;;;;4140794;28;20409;-62
2022/01/30 10:57:45;;;;;;;29.65;6.18;;;8.80;99.90;;;;;;4143183;28;20049;-63
2022/01/30 10:59:53;;;;;;;41.90;6.65;;;8.90;99.90;;;;;;4145807;28;20046;-63
2022/01/30 11:01:54;;;;;;;29.23;6.22;;;8.90;99.90;;;;;;4141041;28;20042;-63
2022/01/30 11:03:55;;;;;;;32.78;6.03;;;8.80;99.90;;;;;;4140795;28;20516;-63
2022/01/30 11:05:59;;;;;;;32.95;6.72;;;8.80;99.90;;;;;;4141398;28;20038;-63
2022/01/30 11:08:00;;;;;;;29.88;6.15;;;8.80;99.90;;;;;;4143118;28;20045;-63
2022/01/30 11:10:19;;;;;;;35.92;6.88;;;8.80;99.90;;;;;;4142871;28;20041;-63
2022/01/30 11:12:30;;;;;;;35.08;6.30;;;8.80;99.90;;;;;;4140815;28;20043;-62
2022/01/30 11:14:52;;;;;;;40.17;6.45;;;8.70;99.90;;;;;;4137057;28;20061;-63
2022/01/30 11:16:56;;;;;;;29.88;6.28;;;8.70;99.90;;;;;;4142526;28;20070;-63
2022/01/30 11:18:58;;;;;;;34.17;6.70;;;8.80;99.90;;;;;;4144037;28;20125;-63